Terminal Aerodrome Forecast
Issued by NWS

Home | Current Version | Previous Version | Text Only | Print | Product List | Glossary On
Versions: 1 2 3 4 5 6 7 8 9 10 11 12 13 14 15 16 17 18 19 20 21
000
FTUS46 KMTR 240500
TAFMRY
TAF
KMRY 240535Z 2406/2506 24005KT P6SM SCT012
     FM241200 VRB03KT 6SM BR SCT007
     FM241700 29009KT P6SM SKC
     FM250300 24004KT P6SM FEW007=

USA.gov is the U.S. government's official web portal to all federal, state and local government web resources and services.